Time;durP1;ratioP1;P1;durP2;ratioP2;P2;SDS_P1;SDS_P2;PMS_P1;PMS_P2;Temp;Humidity;BMP_temperature;BMP_pressure;BME280_temperature;BME280_humidity;BME280_pressure;Samples;Min_cycle;Max_cycle;Signal;HPM_P1;HPM_P2
2021/10/14 00:00:37;;;;;;;;;14.33;10.00;;;;;18.35;53.17;102536.78;5057772;28;45478;-58
2021/10/14 00:03:07;;;;;;;;;10.67;8.67;;;;;18.38;53.06;102538.59;5057529;28;46260;-56
2021/10/14 00:05:33;;;;;;;;;12.33;11.00;;;;;18.37;52.91;102539.47;5057596;28;45445;-53
2021/10/14 00:07:58;;;;;;;;;12.00;10.00;;;;;18.36;52.95;102535.91;5057697;28;45569;-61
2021/10/14 00:10:24;;;;;;;;;12.33;12.33;;;;;18.37;53.19;102536.81;5057499;28;45324;-58
2021/10/14 00:12:49;;;;;;;;;10.67;10.67;;;;;18.35;53.00;102534.13;5057579;28;47158;-53
2021/10/14 00:15:15;;;;;;;;;15.33;12.67;;;;;18.36;52.96;102535.91;5057353;28;45481;-53
2021/10/14 00:17:41;;;;;;;;;11.00;9.67;;;;;18.36;52.68;102530.56;5057331;28;45389;-60
2021/10/14 00:20:07;;;;;;;;;12.00;10.33;;;;;18.35;52.83;102536.78;5057754;28;45351;-55
2021/10/14 00:22:32;;;;;;;;;13.00;10.00;;;;;18.37;52.94;102542.13;5056741;28;47161;-63
2021/10/14 00:24:58;;;;;;;;;11.33;10.33;;;;;18.36;53.09;102535.91;5057246;28;45431;-60
2021/10/14 00:27:23;;;;;;;;;12.67;10.00;;;;;18.35;52.81;102539.44;5057460;28;45432;-58
2021/10/14 00:29:49;;;;;;;;;12.67;10.33;;;;;18.36;52.74;102535.91;5057742;28;45445;-57
2021/10/14 00:32:14;;;;;;;;;12.67;11.00;;;;;18.36;52.97;102541.22;5056996;28;47010;-57
2021/10/14 00:34:40;;;;;;;;;10.00;10.00;;;;;18.36;52.96;102532.38;5056756;28;45225;-58
2021/10/14 00:37:05;;;;;;;;;13.00;11.33;;;;;18.36;52.92;102538.56;5057209;28;45605;-52
2021/10/14 00:39:30;;;;;;;;;12.00;9.00;;;;;18.35;52.73;102541.22;5057279;28;45463;-58
2021/10/14 00:41:56;;;;;;;;;10.67;10.00;;;;;18.35;53.01;102533.22;5057109;28;47213;-59
2021/10/14 00:44:21;;;;;;;;;11.33;10.00;;;;;18.34;52.94;102540.31;5057342;28;45429;-57
2021/10/14 00:46:55;;;;;;;;;11.33;9.67;;;;;18.34;52.97;102537.66;5056866;28;45269;-54
2021/10/14 00:49:22;;;;;;;;;11.00;11.00;;;;;18.35;52.73;102538.53;5057337;28;45414;-54
2021/10/14 00:51:48;;;;;;;;;12.33;9.00;;;;;18.35;52.63;102530.56;5056523;28;47217;-55
2021/10/14 00:54:16;;;;;;;;;11.33;10.00;;;;;18.34;52.76;102532.31;5056676;28;45316;-53
2021/10/14 00:56:42;;;;;;;;;8.00;8.00;;;;;18.34;52.93;102526.13;5056856;28;45444;-54
2021/10/14 00:59:08;;;;;;;;;12.67;10.33;;;;;18.35;52.76;102534.13;5056862;28;45553;-58
2021/10/14 01:01:35;;;;;;;;;13.00;11.67;;;;;18.35;52.63;102531.47;5056563;28;45375;-54
2021/10/14 01:04:01;;;;;;;;;10.00;10.00;;;;;18.34;52.64;102521.66;5056451;28;45243;-57
2021/10/14 01:06:26;;;;;;;;;10.00;9.00;;;;;18.35;52.59;102533.22;5056788;28;45180;-56
2021/10/14 01:08:51;;;;;;;;;11.00;9.67;;;;;18.34;52.94;102523.47;5057147;28;45406;-61
2021/10/14 01:11:17;;;;;;;;;12.00;10.33;;;;;18.35;52.91;102527.91;5056815;28;45915;-63
2021/10/14 01:13:42;;;;;;;;;8.33;8.33;;;;;18.34;52.73;102519.00;5056560;28;45540;-61
2021/10/14 01:16:07;;;;;;;;;9.00;9.00;;;;;18.35;52.76;102514.59;5056906;28;45707;-55
2021/10/14 01:18:33;;;;;;;;;11.67;10.67;;;;;18.34;52.59;102516.34;5056733;28;45428;-55
2021/10/14 01:20:58;;;;;;;;;9.33;9.33;;;;;18.34;52.66;102513.69;5056341;28;45341;-59
2021/10/14 01:23:23;;;;;;;;;10.67;9.67;;;;;18.34;52.78;102510.16;5056321;28;45323;-59
2021/10/14 01:25:49;;;;;;;;;9.67;9.33;;;;;18.34;52.51;102507.50;5056687;28;45386;-63
2021/10/14 01:28:15;;;;;;;;;11.00;9.00;;;;;18.34;52.73;102513.69;5056669;28;45331;-56
2021/10/14 01:30:41;;;;;;;;;12.67;9.00;;;;;18.35;52.61;102506.59;5055257;28;45474;-53
2021/10/14 01:33:07;;;;;;;;;13.00;10.00;;;;;18.34;52.77;102516.34;5055405;28;45375;-58
2021/10/14 01:35:33;;;;;;;;;10.00;10.00;;;;;18.33;52.67;102506.59;5058469;28;45466;-51
2021/10/14 01:37:58;;;;;;;;;11.00;9.00;;;;;18.34;52.50;102505.69;5059982;28;45412;-56
2021/10/14 01:40:23;;;;;;;;;9.00;9.00;;;;;18.33;52.76;102500.34;5059654;28;46888;-57
2021/10/14 01:42:49;;;;;;;;;13.00;10.00;;;;;18.34;52.67;102502.16;5059905;28;45453;-55
2021/10/14 01:45:15;;;;;;;;;10.00;10.00;;;;;18.33;52.53;102503.94;5060117;28;45205;-52
2021/10/14 01:47:40;;;;;;;;;11.00;8.00;;;;;18.34;52.45;102504.81;5059733;28;45243;-56
2021/10/14 01:50:07;;;;;;;;;9.33;8.67;;;;;18.33;52.64;102501.25;5059580;28;46219;-54
2021/10/14 01:52:33;;;;;;;;;12.33;11.00;;;;;18.34;52.97;102507.50;5058786;28;45330;-59
2021/10/14 01:54:59;;;;;;;;;9.00;7.67;;;;;18.33;52.52;102501.25;5059551;28;45620;-58
2021/10/14 01:57:24;;;;;;;;;11.67;9.67;;;;;18.33;52.63;102498.59;5059873;28;45411;-59
2021/10/14 01:59:50;;;;;;;;;8.33;8.33;;;;;18.33;52.46;102498.59;5059776;28;46064;-56
2021/10/14 02:02:15;;;;;;;;;10.33;9.00;;;;;18.33;52.54;102500.34;5059304;28;45402;-53
2021/10/14 02:04:40;;;;;;;;;9.33;9.00;;;;;18.33;52.49;102492.38;5059788;28;45394;-62
2021/10/14 02:07:06;;;;;;;;;8.33;8.33;;;;;18.33;52.43;102495.03;5058477;28;45449;-55
2021/10/14 02:09:31;;;;;;;;;12.00;9.00;;;;;18.33;52.26;102495.94;5059369;28;46311;-59
2021/10/14 02:11:56;;;;;;;;;10.00;9.00;;;;;18.33;52.41;102489.72;5059291;28;45370;-62
2021/10/14 02:14:22;;;;;;;;;12.00;9.67;;;;;18.33;52.42;102487.03;5059552;28;45454;-59
2021/10/14 02:16:47;;;;;;;;;9.67;8.00;;;;;18.32;52.30;102483.47;5059632;28;45350;-55
2021/10/14 02:19:12;;;;;;;;;10.00;9.00;;;;;18.32;52.23;102482.63;5059147;28;46097;-63
2021/10/14 02:21:38;;;;;;;;;10.33;8.67;;;;;18.32;52.43;102482.63;5059146;28;45249;-58
2021/10/14 02:24:04;;;;;;;;;9.00;8.00;;;;;18.32;52.19;102479.94;5059087;28;45448;-57
2021/10/14 02:26:29;;;;;;;;;9.67;9.67;;;;;18.32;52.42;102478.16;5059439;28;45255;-55
2021/10/14 02:28:54;;;;;;;;;10.67;10.67;;;;;18.33;52.12;102479.97;5058414;28;46331;-58
2021/10/14 02:31:20;;;;;;;;;11.00;10.67;;;;;18.31;52.27;102473.72;5059163;28;45327;-55
2021/10/14 02:33:45;;;;;;;;;8.33;8.33;;;;;18.30;52.26;102474.59;5058932;28;45264;-58
2021/10/14 02:36:11;;;;;;;;;9.33;7.67;;;;;18.31;51.85;102476.38;5059120;28;45291;-54
2021/10/14 02:38:36;;;;;;;;;10.67;9.33;;;;;18.31;52.47;102476.38;5058384;28;46070;-55
2021/10/14 02:41:02;;;;;;;;;10.00;8.00;;;;;18.31;52.17;102481.72;5059015;28;45340;-59
2021/10/14 02:43:28;;;;;;;;;12.67;8.00;;;;;18.30;52.01;102477.25;5058928;28;45239;-63
2021/10/14 02:45:54;;;;;;;;;13.67;10.67;;;;;18.31;52.13;102467.50;5041134;28;45564;-59
2021/10/14 02:48:20;;;;;;;;;11.67;9.67;;;;;18.30;52.13;102473.72;5058828;28;46590;-56
2021/10/14 02:50:45;;;;;;;;;12.67;8.33;;;;;18.31;52.33;102475.47;5058675;28;45449;-60
2021/10/14 02:53:10;;;;;;;;;11.33;8.67;;;;;18.31;52.28;102472.81;5058738;28;45319;-59
2021/10/14 02:55:36;;;;;;;;;8.67;7.67;;;;;18.31;52.24;102475.47;5058886;28;45354;-57
2021/10/14 02:58:01;;;;;;;;;9.33;9.33;;;;;18.30;52.22;102471.91;5058467;28;47441;-59
2021/10/14 03:00:27;;;;;;;;;10.33;7.33;;;;;18.31;52.03;102475.47;5058571;28;45264;-57
2021/10/14 03:02:52;;;;;;;;;8.00;8.00;;;;;18.31;52.27;102476.38;5058908;28;45436;-54
2021/10/14 03:05:17;;;;;;;;;7.00;7.00;;;;;18.30;51.97;102474.59;5040546;28;45475;-61
2021/10/14 03:07:43;;;;;;;;;10.67;8.00;;;;;18.30;52.07;102469.25;5057583;28;45367;-60
2021/10/14 03:10:10;;;;;;;;;12.00;9.33;;;;;18.30;52.06;102473.72;5058226;28;45375;-55
2021/10/14 03:12:35;;;;;;;;;11.00;7.00;;;;;18.30;52.00;102471.06;5058380;28;45506;-61
2021/10/14 03:15:01;;;;;;;;;8.00;8.00;;;;;18.29;51.96;102472.81;5058631;28;45201;-52
2021/10/14 03:17:27;;;;;;;;;8.67;8.33;;;;;18.30;52.01;102473.72;5058237;28;47141;-62
2021/10/14 03:19:52;;;;;;;;;10.33;9.00;;;;;18.29;52.26;102472.81;5058599;28;45841;-55
2021/10/14 03:22:18;;;;;;;;;8.33;8.33;;;;;18.30;52.05;102468.38;5057471;28;45545;-62
2021/10/14 03:24:43;;;;;;;;;9.00;7.67;;;;;18.28;52.07;102471.91;5058548;28;45212;-56
2021/10/14 03:27:09;;;;;;;;;9.00;9.00;;;;;18.28;51.98;102477.22;5058153;28;47167;-56
2021/10/14 03:29:34;;;;;;;;;8.67;8.67;;;;;18.29;51.76;102472.81;5058062;28;45373;-58
2021/10/14 03:31:59;;;;;;;;;11.00;9.00;;;;;18.28;51.71;102482.56;5057522;28;45429;-56
2021/10/14 03:34:25;;;;;;;;;13.00;10.00;;;;;18.28;51.92;102476.34;5057988;28;45490;-61
2021/10/14 03:36:50;;;;;;;;;9.00;7.67;;;;;18.29;51.98;102480.81;5058022;28;46058;-56
2021/10/14 03:39:15;;;;;;;;;8.67;8.00;;;;;18.28;51.95;102484.31;5057988;28;45363;-57
2021/10/14 03:41:41;;;;;;;;;8.00;7.33;;;;;18.28;51.73;102482.56;5057971;28;45414;-57
2021/10/14 03:44:06;;;;;;;;;8.67;8.33;;;;;18.28;51.81;102487.88;5058259;28;45453;-53
2021/10/14 03:46:32;;;;;;;;;10.00;8.00;;;;;18.28;51.98;102492.31;5057744;28;46075;-62
2021/10/14 03:48:57;;;;;;;;;8.00;8.00;;;;;18.28;51.51;102492.31;5057954;28;45458;-59
2021/10/14 03:51:22;;;;;;;;;10.00;7.00;;;;;18.28;51.78;102486.97;5058247;28;45323;-54
2021/10/14 03:53:48;;;;;;;;;9.00;7.33;;;;;18.28;51.59;102481.66;5058120;28;45504;-54
2021/10/14 03:56:13;;;;;;;;;8.33;8.00;;;;;18.28;51.71;102486.97;5057912;28;47083;-52
2021/10/14 03:58:39;;;;;;;;;9.00;9.00;;;;;18.28;51.50;102493.22;5056801;28;45468;-52
2021/10/14 04:01:04;;;;;;;;;8.33;8.33;;;;;18.29;51.70;102494.09;5058093;28;45389;-55
2021/10/14 04:03:29;;;;;;;;;11.00;9.00;;;;;18.28;51.57;102492.31;5057785;28;45324;-56
2021/10/14 04:05:55;;;;;;;;;7.33;7.00;;;;;18.28;51.75;102489.66;5057502;28;46362;-52
2021/10/14 04:08:20;;;;;;;;;6.33;6.33;;;;;18.27;51.76;102490.53;5057632;28;45313;-60
2021/10/14 04:10:45;;;;;;;;;8.67;7.00;;;;;18.26;51.69;102486.97;5057542;28;45315;-50
2021/10/14 04:13:11;;;;;;;;;8.00;6.67;;;;;18.27;51.66;102486.06;5057745;28;45714;-51
2021/10/14 04:15:36;;;;;;;;;8.67;8.33;;;;;18.27;51.65;102495.84;5057170;28;46373;-53
2021/10/14 04:18:02;;;;;;;;;10.33;10.33;;;;;18.27;51.45;102493.19;5057453;28;45172;-53
2021/10/14 04:20:27;;;;;;;;;9.00;8.00;;;;;18.27;51.74;102493.19;5057654;28;45383;-55
2021/10/14 04:22:53;;;;;;;;;7.33;7.33;;;;;18.26;51.64;102486.97;5057670;28;45299;-53
2021/10/14 04:25:19;;;;;;;;;9.33;8.00;;;;;18.26;51.37;102494.06;5057324;28;46362;-55
2021/10/14 04:27:44;;;;;;;;;10.00;8.00;;;;;18.26;51.62;102488.72;5056929;28;45351;-55
2021/10/14 04:30:10;;;;;;;;;10.00;8.00;;;;;18.25;51.43;102495.81;5057430;28;45486;-53
2021/10/14 04:32:35;;;;;;;;;7.67;7.33;;;;;18.26;51.36;102489.63;5057540;28;45504;-56
2021/10/14 04:35:03;;;;;;;;;9.00;8.00;;;;;18.26;51.51;102491.38;5056639;28;47079;-56
2021/10/14 04:37:28;;;;;;;;;9.00;8.33;;;;;18.26;51.68;102494.06;5057161;28;45418;-53
2021/10/14 04:39:53;;;;;;;;;9.67;8.33;;;;;18.27;51.44;102490.53;5057071;28;45624;-56
2021/10/14 04:42:19;;;;;;;;;6.00;6.00;;;;;18.26;51.80;102489.63;5057289;28;45406;-55
2021/10/14 04:44:44;;;;;;;;;6.67;6.00;;;;;18.26;51.39;102491.38;5056832;28;46412;-60
2021/10/14 04:47:09;;;;;;;;;7.33;7.33;;;;;18.26;51.36;102500.28;5057073;28;45343;-54
2021/10/14 04:49:35;;;;;;;;;8.67;6.67;;;;;18.27;51.41;102506.50;5057140;28;45217;-60
2021/10/14 04:52:01;;;;;;;;;10.67;8.00;;;;;18.25;51.38;102501.13;5057195;28;45221;-54
2021/10/14 04:54:27;;;;;;;;;7.00;6.67;;;;;18.25;51.56;102500.25;5056708;28;47129;-56
2021/10/14 04:56:53;;;;;;;;;8.00;8.00;;;;;18.25;51.36;102500.25;5056690;28;45324;-56
2021/10/14 04:59:18;;;;;;;;;8.00;7.33;;;;;18.25;51.27;102502.94;5056837;28;45489;-59
2021/10/14 05:01:44;;;;;;;;;8.33;8.33;;;;;18.24;51.23;102499.38;5057025;28;45233;-56
2021/10/14 05:04:09;;;;;;;;;7.33;7.33;;;;;18.25;51.49;102498.47;5056392;28;47380;-55
2021/10/14 05:06:35;;;;;;;;;12.00;9.00;;;;;18.24;51.16;102495.81;5056660;28;45256;-59
2021/10/14 05:09:00;;;;;;;;;9.00;8.00;;;;;18.25;51.03;102497.59;5056692;28;45391;-54
2021/10/14 05:11:26;;;;;;;;;10.67;9.67;;;;;18.24;51.16;102491.38;5056871;28;45295;-57
2021/10/14 05:13:52;;;;;;;;;8.33;8.00;;;;;18.24;51.23;102491.38;5056377;28;47204;-57
2021/10/14 05:16:17;;;;;;;;;10.00;8.00;;;;;18.24;51.22;102495.81;5056467;28;45442;-53
2021/10/14 05:18:43;;;;;;;;;8.00;7.67;;;;;18.24;51.50;102499.38;5056517;28;45345;-52
2021/10/14 05:21:08;;;;;;;;;7.67;7.67;;;;;18.24;50.77;102502.03;5056467;28;45323;-56
2021/10/14 05:23:33;;;;;;;;;8.67;7.00;;;;;18.24;51.46;102506.44;5056283;28;46004;-55
2021/10/14 05:25:59;;;;;;;;;7.00;6.67;;;;;18.24;50.93;102506.44;5056273;28;45327;-57
2021/10/14 05:28:24;;;;;;;;;10.00;9.00;;;;;18.24;51.09;102503.78;5056223;28;45306;-55
2021/10/14 05:30:50;;;;;;;;;9.67;8.00;;;;;18.24;51.38;102506.44;5056678;28;45491;-54
2021/10/14 05:33:15;;;;;;;;;8.00;8.00;;;;;18.23;51.30;102505.53;5056081;28;47011;-55
2021/10/14 05:35:41;;;;;;;;;9.00;8.33;;;;;18.24;51.25;102512.66;5056004;28;45301;-56
2021/10/14 05:38:06;;;;;;;;;10.00;9.00;;;;;18.22;51.22;102509.09;5056252;28;45216;-53
2021/10/14 05:40:32;;;;;;;;;9.33;9.00;;;;;18.23;50.92;102510.00;5056570;28;45347;-53
2021/10/14 05:42:58;;;;;;;;;9.67;7.67;;;;;18.23;51.02;102510.00;5056102;28;46663;-53
2021/10/14 05:45:23;;;;;;;;;6.67;6.67;;;;;18.23;51.14;102510.00;5056154;28;45486;-52
2021/10/14 05:47:49;;;;;;;;;10.33;8.00;;;;;18.22;50.90;102509.09;5056366;28;45272;-57
2021/10/14 05:50:14;;;;;;;;;7.00;6.00;;;;;18.23;51.07;102504.69;5056255;28;45501;-55
2021/10/14 05:52:39;;;;;;;;;9.67;7.33;;;;;18.22;51.09;102497.53;5056008;28;46091;-55
2021/10/14 05:55:05;;;;;;;;;7.00;7.00;;;;;18.23;50.93;102504.69;5055875;28;45504;-52
2021/10/14 05:57:31;;;;;;;;;12.67;9.00;;;;;18.22;51.17;102500.22;5054981;28;45523;-49
2021/10/14 05:59:56;;;;;;;;;10.00;7.67;;;;;18.22;50.95;102492.22;5056039;28;45409;-53
2021/10/14 06:02:22;;;;;;;;;7.67;7.67;;;;;18.22;50.79;102501.09;5037806;28;47124;-48
2021/10/14 06:04:48;;;;;;;;;8.33;8.00;;;;;18.21;50.42;102499.31;5055844;28;45354;-49
2021/10/14 06:07:13;;;;;;;;;12.00;9.33;;;;;18.23;50.70;102494.91;5055782;28;45427;-54
2021/10/14 06:09:40;;;;;;;;;9.00;9.00;;;;;18.23;50.85;102497.56;5038080;28;45332;-51
2021/10/14 06:12:06;;;;;;;;;7.67;6.67;;;;;18.23;50.75;102496.69;5055710;28;47291;-55
2021/10/14 06:14:32;;;;;;;;;8.33;7.33;;;;;18.23;50.38;102488.69;5055292;28;46710;-59
2021/10/14 06:16:57;;;;;;;;;10.00;8.33;;;;;18.24;50.74;102498.47;5055957;28;45331;-61
2021/10/14 06:19:22;;;;;;;;;7.67;7.67;;;;;18.23;50.93;102489.56;5056191;28;45435;-54
2021/10/14 06:21:48;;;;;;;;;7.33;7.00;;;;;18.23;50.50;102500.22;5058421;28;46277;-54
2021/10/14 06:24:14;;;;;;;;;9.33;8.33;;;;;18.23;50.37;102500.22;5059162;28;45371;-51
2021/10/14 06:26:39;;;;;;;;;8.67;7.00;;;;;18.23;50.93;102500.22;5059575;28;45559;-60
2021/10/14 06:29:05;;;;;;;;;9.00;8.67;;;;;18.23;50.65;102502.00;5059348;28;45344;-54
2021/10/14 06:31:30;;;;;;;;;7.33;6.33;;;;;18.22;50.47;102497.53;5058642;28;47100;-61
2021/10/14 06:33:56;;;;;;;;;9.67;7.67;;;;;18.23;50.53;102496.69;5058758;28;45421;-61
2021/10/14 06:36:21;;;;;;;;;9.00;8.67;;;;;18.23;50.84;102496.69;5059158;28;45327;-61
2021/10/14 06:38:48;;;;;;;;;8.00;8.00;;;;;18.23;50.54;102499.34;5059303;28;45308;-52
2021/10/14 06:41:14;;;;;;;;;13.00;8.00;;;;;18.22;50.68;102501.09;5058973;28;45319;-58
2021/10/14 06:43:40;;;;;;;;;9.67;7.00;;;;;18.22;50.85;102503.78;5058697;28;45303;-50
2021/10/14 06:46:05;;;;;;;;;8.00;7.00;;;;;18.23;50.70;102499.34;5058672;28;45319;-55
2021/10/14 06:48:31;;;;;;;;;9.33;8.33;;;;;18.22;50.79;102497.53;5058853;28;45322;-61
2021/10/14 06:50:58;;;;;;;;;7.33;7.33;;;;;18.22;50.94;102497.53;5058808;28;45954;-58
2021/10/14 06:53:24;;;;;;;;;7.67;7.00;;;;;18.22;50.71;102497.53;5057603;28;45820;-55
2021/10/14 06:55:49;;;;;;;;;7.67;6.67;;;;;18.21;50.76;102501.97;5059100;28;45582;-58
2021/10/14 06:58:15;;;;;;;;;10.33;8.00;;;;;18.21;50.36;102504.63;5059005;28;46196;-58
2021/10/14 07:00:40;;;;;;;;;8.00;6.33;;;;;18.21;50.54;102498.44;5058504;28;46239;-58
2021/10/14 07:03:07;;;;;;;;;0.00;0.00;;;;;18.21;50.37;102498.44;5039994;28;45387;-59
2021/10/14 07:05:32;;;;;;;;;10.00;10.00;;;;;18.21;50.36;102493.97;5058728;28;45545;-59
2021/10/14 07:07:57;;;;;;;;;9.00;9.00;;;;;18.21;50.42;102499.31;5058809;28;45366;-58
2021/10/14 07:10:23;;;;;;;;;7.33;6.33;;;;;18.20;50.80;102492.22;5058536;28;47304;-60
2021/10/14 07:12:49;;;;;;;;;8.67;7.33;;;;;18.21;50.33;102501.09;5057982;28;45304;-60
2021/10/14 07:15:15;;;;;;;;;9.00;7.67;;;;;18.20;50.72;102497.53;5058350;28;45249;-61
2021/10/14 07:17:40;;;;;;;;;9.33;8.67;;;;;18.20;50.33;102491.31;5058344;28;45298;-52
2021/10/14 07:20:08;;;;;;;;;8.00;7.67;;;;;18.21;50.53;102495.78;5058250;28;47092;-50
2021/10/14 07:22:33;;;;;;;;;8.33;7.00;;;;;18.20;50.52;102493.97;5058394;28;45839;-50
2021/10/14 07:24:59;;;;;;;;;7.67;7.00;;;;;18.20;50.32;102488.66;5058220;28;45286;-51
2021/10/14 07:27:24;;;;;;;;;7.33;7.33;;;;;18.20;50.58;102491.31;5058586;28;45244;-49
2021/10/14 07:29:50;;;;;;;;;8.67;8.00;;;;;18.20;50.28;102491.31;5058128;28;47345;-61
2021/10/14 07:32:15;;;;;;;;;8.33;8.00;;;;;18.18;50.28;102485.97;5055749;28;45432;-53
2021/10/14 07:34:41;;;;;;;;;10.33;8.00;;;;;18.18;50.64;102485.97;5057651;28;45423;-61
2021/10/14 07:37:07;;;;;;;;;8.33;8.00;;;;;18.20;50.39;102488.66;5058380;28;45383;-58
2021/10/14 07:39:33;;;;;;;;;8.00;8.00;;;;;18.20;50.20;102499.28;5057840;28;46125;-50
2021/10/14 07:41:59;;;;;;;;;9.00;8.00;;;;;18.19;50.63;102495.72;5057681;28;45513;-53
2021/10/14 07:44:24;;;;;;;;;8.00;7.67;;;;;18.19;50.22;102492.19;5058070;28;45379;-56
2021/10/14 07:46:50;;;;;;;;;8.00;7.67;;;;;18.19;50.24;102494.84;5058039;28;45340;-54
2021/10/14 07:49:17;;;;;;;;;11.67;6.00;;;;;18.19;50.30;102492.19;5057707;28;46982;-61
2021/10/14 07:51:43;;;;;;;;;10.33;8.33;;;;;18.18;50.13;102496.63;5057588;28;45377;-56
2021/10/14 07:54:08;;;;;;;;;6.00;6.00;;;;;18.19;50.50;102492.19;5058105;28;45256;-61
2021/10/14 07:56:34;;;;;;;;;9.00;7.67;;;;;18.17;50.27;102490.41;5057926;28;45273;-59
2021/10/14 07:59:00;;;;;;;;;9.00;7.00;;;;;18.17;50.37;102490.41;5057502;28;46207;-57
2021/10/14 08:01:25;;;;;;;;;6.00;4.67;;;;;18.17;50.35;102486.84;5057532;28;45403;-62
2021/10/14 08:03:51;;;;;;;;;9.67;8.33;;;;;18.18;50.37;102488.63;5057575;28;45261;-54
2021/10/14 08:06:17;;;;;;;;;7.00;7.00;;;;;18.17;50.22;102484.16;5057741;28;45302;-53
2021/10/14 08:08:42;;;;;;;;;9.33;6.67;;;;;18.16;50.34;102488.59;5057327;28;47001;-54
2021/10/14 08:11:08;;;;;;;;;10.00;7.67;;;;;18.17;49.96;102490.41;5057192;28;45311;-61
2021/10/14 08:13:34;;;;;;;;;10.33;9.00;;;;;18.15;50.27;102492.09;5057796;28;45331;-61
2021/10/14 08:16:00;;;;;;;;;7.00;7.00;;;;;18.16;49.99;102493.00;5057484;28;45494;-54
2021/10/14 08:18:26;;;;;;;;;8.67;8.00;;;;;18.16;50.16;102487.69;5057166;28;46558;-54
2021/10/14 08:20:57;;;;;;;;;9.00;7.33;;;;;18.15;50.16;102489.44;5057180;28;45334;-59
2021/10/14 08:23:23;;;;;;;;;7.00;7.00;;;;;18.16;50.35;102480.59;5057518;28;45300;-58
2021/10/14 08:25:49;;;;;;;;;8.00;7.33;;;;;18.15;50.34;102481.47;5057372;28;45402;-54
2021/10/14 08:28:15;;;;;;;;;14.33;10.33;;;;;18.16;50.22;102485.03;5057028;28;46197;-59
2021/10/14 08:30:42;;;;;;;;;9.00;7.67;;;;;18.16;50.33;102488.59;5057294;28;45272;-57
2021/10/14 08:33:08;;;;;;;;;7.67;7.33;;;;;18.14;50.11;102482.34;5057011;28;45418;-59
2021/10/14 08:35:39;;;;;;;;;7.67;5.00;;;;;18.15;50.26;102481.47;5056869;28;45323;-58
2021/10/14 08:38:07;;;;;;;;;7.00;6.33;;;;;18.14;50.31;102482.34;5057009;28;45259;-53
2021/10/14 08:40:34;;;;;;;;;7.00;7.00;;;;;18.14;50.26;102477.03;5057052;28;45328;-50
2021/10/14 08:43:04;;;;;;;;;3.67;3.33;;;;;18.16;50.45;102477.94;5056751;28;45251;-50
2021/10/14 08:45:33;;;;;;;;;8.00;7.67;;;;;18.13;50.33;102475.22;5057229;28;45503;-52
2021/10/14 08:47:58;;;;;;;;;11.00;9.00;;;;;18.14;50.07;102478.78;5056495;28;46384;-50
2021/10/14 08:50:24;;;;;;;;;9.00;8.00;;;;;18.14;50.07;102478.78;5056838;28;45313;-54
2021/10/14 08:52:49;;;;;;;;;12.00;9.00;;;;;18.13;50.10;102479.63;5057173;28;45276;-57
2021/10/14 08:55:14;;;;;;;;;10.00;7.33;;;;;18.13;49.98;102477.88;5056991;28;45477;-54
2021/10/14 08:57:40;;;;;;;;;9.00;7.00;;;;;18.13;50.14;102485.88;5056696;28;47103;-48
2021/10/14 09:00:06;;;;;;;;;8.67;8.67;;;;;18.11;50.13;102479.63;5056668;28;45422;-51
2021/10/14 09:02:33;;;;;;;;;9.00;7.00;;;;;18.13;50.12;102476.97;5056761;28;45488;-52
2021/10/14 09:05:05;;;;;;;;;11.33;8.00;;;;;18.14;50.12;102481.44;5056954;28;45381;-51
2021/10/14 09:07:32;;;;;;;;;8.00;8.00;;;;;18.12;50.06;102478.78;5056426;28;46166;-51
2021/10/14 09:10:05;;;;;;;;;6.00;6.00;;;;;18.12;50.20;102476.13;5055510;28;45432;-49
2021/10/14 09:12:35;;;;;;;;;7.33;7.00;;;;;18.12;50.18;102468.13;5056391;28;45369;-52
2021/10/14 09:15:05;;;;;;;;;9.33;8.00;;;;;18.13;50.20;102471.66;5056614;28;45213;-48
2021/10/14 09:17:37;;;;;;;;;9.00;7.00;;;;;18.12;50.21;102467.22;5056279;28;46159;-48
2021/10/14 09:20:20;;;;;;;;;9.00;8.33;;;;;18.11;50.20;102463.66;5056542;28;45216;-52
2021/10/14 09:23:06;;;;;;;;;7.00;6.00;;;;;18.12;50.17;102465.47;5056604;28;45214;-51
2021/10/14 09:25:35;;;;;;;;;7.33;7.00;;;;;18.11;50.45;102463.66;5056586;28;45325;-52
2021/10/14 09:28:24;;;;;;;;;10.67;9.00;;;;;18.11;50.28;102463.66;5056530;28;46239;-50
2021/10/14 09:30:58;;;;;;;;;10.33;7.67;;;;;18.11;50.25;102463.66;5056444;28;45561;-49
2021/10/14 09:33:43;;;;;;;;;7.33;7.33;;;;;18.11;50.40;102458.34;5056212;28;45354;-48
2021/10/14 09:36:27;;;;;;;;;7.33;7.00;;;;;18.12;50.42;102459.25;5055884;28;45453;-49
2021/10/14 09:38:54;;;;;;;;;8.00;8.00;;;;;18.10;50.58;102453.91;5056219;28;46104;-50
2021/10/14 09:41:24;;;;;;;;;10.67;8.00;;;;;18.09;50.36;102452.09;5056092;28;45742;-52
2021/10/14 09:43:55;;;;;;;;;8.00;6.00;;;;;18.11;50.50;102447.69;5056352;28;45366;-50
2021/10/14 09:46:48;;;;;;;;;7.00;7.00;;;;;18.10;50.30;102445.91;5056618;28;45307;-52
2021/10/14 09:49:21;;;;;;;;;7.33;6.33;;;;;18.11;50.34;102447.69;5052112;28;47137;-49
2021/10/14 09:51:47;;;;;;;;;8.33;7.00;;;;;18.12;50.46;102448.59;5055839;28;45475;-49
2021/10/14 09:54:13;;;;;;;;;7.00;5.33;;;;;18.11;49.97;102450.34;5055780;28;45339;-53
2021/10/14 09:56:39;;;;;;;;;9.33;7.33;;;;;18.12;50.32;102449.50;5058712;28;45571;-48
2021/10/14 09:59:05;;;;;;;;;6.33;6.33;;;;;18.11;50.60;102438.81;5059069;28;46034;-54
2021/10/14 10:01:37;;;;;;;;;6.33;6.33;;;;;18.11;50.56;102442.38;5059004;28;45374;-51
2021/10/14 10:04:04;;;;;;;;;7.33;5.67;;;;;18.12;50.45;102443.28;5059197;28;45320;-51
2021/10/14 10:06:34;;;;;;;;;6.00;5.00;;;;;18.11;50.51;102431.72;5059318;28;45303;-50
2021/10/14 10:09:08;;;;;;;;;8.67;6.67;;;;;18.11;50.88;102431.72;5059090;28;47193;-53
2021/10/14 10:11:39;;;;;;;;;7.67;6.67;;;;;18.11;50.31;102423.75;5058913;28;45462;-52
2021/10/14 10:14:05;;;;;;;;;6.00;6.00;;;;;18.11;50.44;102423.75;5059156;28;45383;-54
2021/10/14 10:16:30;;;;;;;;;8.67;7.00;;;;;18.10;50.54;102416.66;5059348;28;45295;-56
2021/10/14 10:19:02;;;;;;;;;6.00;6.00;;;;;18.12;50.76;102409.56;5058914;28;46089;-48
2021/10/14 10:21:33;;;;;;;;;5.33;5.33;;;;;18.13;50.46;102407.78;5058942;28;45482;-49
2021/10/14 10:24:05;;;;;;;;;7.33;5.33;;;;;18.12;50.54;102406.91;5059170;28;45387;-53
2021/10/14 10:26:36;;;;;;;;;8.33;6.33;;;;;18.13;50.61;102414.00;5059083;28;45161;-53
2021/10/14 10:29:16;;;;;;;;;7.00;6.00;;;;;18.14;50.56;102404.28;5058895;28;47164;-52
2021/10/14 10:31:51;;;;;;;;;5.33;5.33;;;;;18.13;50.54;102403.38;5058777;28;45340;-55
2021/10/14 10:37:12;;;;;;;;;5.33;5.33;;;;;18.14;50.58;102396.28;5059258;28;45446;-59
2021/10/14 10:39:44;;;;;;;;;10.00;5.33;;;;;18.14;50.49;102402.50;5058660;28;47219;-56
2021/10/14 10:42:21;;;;;;;;;7.33;5.67;;;;;18.14;50.60;102396.28;5058962;28;45439;-57
2021/10/14 10:44:47;;;;;;;;;6.33;6.33;;;;;18.14;50.97;102394.53;5059026;28;45319;-50
2021/10/14 10:47:41;;;;;;;;;6.67;6.33;;;;;18.14;50.71;102389.19;5059277;28;45449;-52
2021/10/14 10:50:13;;;;;;;;;5.33;5.33;;;;;18.15;50.65;102382.09;5058692;28;47331;-52
2021/10/14 10:52:41;;;;;;;;;4.00;4.00;;;;;18.15;50.49;102382.09;5058648;28;45325;-58
2021/10/14 10:55:26;;;;;;;;;7.00;5.33;;;;;18.15;50.84;102388.31;5058841;28;45388;-54
2021/10/14 10:57:53;;;;;;;;;6.00;6.00;;;;;18.15;50.89;102384.75;5057433;28;45280;-54
2021/10/14 11:00:21;;;;;;;;;5.33;5.33;;;;;18.15;50.64;102375.00;5058627;28;46367;-53
2021/10/14 11:03:06;;;;;;;;;5.00;5.00;;;;;18.15;50.46;102385.66;5058353;28;45392;-56
2021/10/14 11:05:47;;;;;;;;;6.00;5.67;;;;;18.15;50.71;102380.31;5058862;28;45386;-54
2021/10/14 11:08:19;;;;;;;;;5.33;5.33;;;;;18.16;50.92;102375.91;5058916;28;45331;-49
2021/10/14 11:10:47;;;;;;;;;6.00;6.00;;;;;18.17;50.51;102375.94;5058191;28;47248;-57
2021/10/14 11:13:12;;;;;;;;;6.00;5.00;;;;;18.17;50.61;102375.03;5058419;28;45351;-54
2021/10/14 11:15:38;;;;;;;;;8.00;6.00;;;;;18.17;50.56;102370.63;5058411;28;45296;-57
2021/10/14 11:18:06;;;;;;;;;5.00;5.00;;;;;18.17;50.70;102372.38;5058789;28;45452;-58
2021/10/14 11:20:33;;;;;;;;;10.33;5.33;;;;;18.17;50.61;102365.31;5058384;28;46108;-57
2021/10/14 11:23:06;;;;;;;;;6.00;6.00;;;;;18.17;50.65;102367.97;5058091;28;45438;-53